createdAt,value
2018-07-16T00:00:38.594Z,599
2018-07-16T00:01:41.038Z,599.2
2018-07-16T00:02:42.915Z,599.4
2018-07-16T00:03:45.363Z,599.9
2018-07-16T00:04:47.824Z,599.9
2018-07-16T00:05:50.271Z,599.5
2018-07-16T00:06:52.728Z,599.6
2018-07-16T00:07:54.356Z,599.8
2018-07-16T00:08:56.538Z,599.4
2018-07-16T00:09:59.006Z,599.6
2018-07-16T00:11:01.167Z,599.6
2018-07-16T00:12:03.058Z,599.7
2018-07-16T00:13:04.967Z,599.6
2018-07-16T00:14:07.415Z,599.8
2018-07-16T00:15:09.866Z,599.9
2018-07-16T00:16:11.779Z,599.8
2018-07-16T00:17:13.667Z,600
2018-07-16T00:18:16.122Z,599.5
2018-07-16T00:19:18.339Z,599.5
2018-07-16T00:20:20.524Z,599.4
2018-07-16T00:21:22.709Z,599.4
2018-07-16T00:22:24.889Z,599.4
2018-07-16T00:23:27.339Z,599.4
2018-07-16T00:24:29.509Z,599.8
2018-07-16T00:25:31.696Z,600.2
2018-07-16T00:26:33.607Z,599.9
2018-07-16T00:27:35.249Z,599.9
2018-07-16T00:28:37.424Z,600
2018-07-16T00:29:39.615Z,599.8
2018-07-16T00:30:42.077Z,600
2018-07-16T00:31:44.258Z,600
2018-07-16T00:32:46.432Z,599.5
2018-07-16T00:33:48.600Z,599.3
2018-07-16T00:34:50.766Z,599.6
2018-07-16T00:35:52.409Z,599.4
2018-07-16T00:36:54.585Z,599.5
2018-07-16T00:37:57.027Z,599.5
2018-07-16T00:38:59.211Z,599.3
2018-07-16T00:40:01.152Z,599.5
2018-07-16T00:41:03.357Z,599.7
2018-07-16T00:42:05.532Z,600.1
2018-07-16T00:43:07.992Z,600.2
2018-07-16T00:44:10.168Z,600.4
2018-07-16T00:45:12.612Z,600.6
2018-07-16T00:46:15.048Z,601.1
2018-07-16T00:47:16.944Z,600.8
2018-07-16T00:48:19.390Z,601.1
2018-07-16T00:49:21.835Z,600.8
2018-07-16T00:50:23.755Z,601.1
2018-07-16T00:51:25.936Z,601.2
2018-07-16T00:52:28.095Z,601.2
2018-07-16T00:53:30.546Z,601.3
2018-07-16T00:54:32.755Z,601.3
2018-07-16T00:55:34.926Z,601.1
2018-07-16T00:56:37.388Z,601.2
2018-07-16T00:57:39.558Z,601.2
2018-07-16T00:58:41.731Z,601.5
2018-07-16T00:59:44.196Z,601.3
2018-07-16T01:00:46.374Z,601.8
2018-07-16T01:01:48.568Z,601.6
2018-07-16T01:02:50.730Z,601.3
2018-07-16T01:03:53.186Z,601.3
2018-07-16T01:04:55.378Z,601.5
2018-07-16T01:05:57.528Z,601.1
2018-07-16T01:06:59.456Z,601.2
2018-07-16T01:08:01.903Z,601.4
2018-07-16T01:09:04.387Z,601
2018-07-16T01:10:06.829Z,601
2018-07-16T01:11:08.749Z,601
2018-07-16T01:12:11.182Z,601.1
2018-07-16T01:13:13.636Z,601
2018-07-16T01:14:15.813Z,601.2
2018-07-16T01:15:18.258Z,601.1
2018-07-16T01:16:20.705Z,601
2018-07-16T01:17:22.606Z,601
2018-07-16T01:18:24.216Z,601.1
2018-07-16T01:19:26.385Z,601.1
2018-07-16T01:20:28.836Z,601.4
2018-07-16T01:21:31.020Z,601.1
2018-07-16T01:22:33.206Z,601.2
2018-07-16T01:23:35.657Z,601.6
2018-07-16T01:24:37.884Z,602.2
2018-07-16T01:25:40.323Z,602.4
2018-07-16T01:26:42.513Z,602.4
2018-07-16T01:27:44.686Z,602.6
2018-07-16T01:28:46.869Z,603
2018-07-16T01:29:49.050Z,603
2018-07-16T01:30:50.946Z,603.4
2018-07-16T01:31:53.113Z,603.6
2018-07-16T01:32:55.354Z,603.4
2018-07-16T01:33:57.803Z,603.6
2018-07-16T01:35:14.906Z,603.5
2018-07-16T01:36:17.079Z,603.2
2018-07-16T01:37:19.265Z,603.6
2018-07-16T01:38:21.724Z,603.5
2018-07-16T01:39:24.170Z,603.7
2018-07-16T01:40:26.356Z,603.9
2018-07-16T01:41:28.515Z,603.9
2018-07-16T01:42:30.435Z,604.2
2018-07-16T01:43:32.341Z,603.7
2018-07-16T01:44:34.515Z,603.5
2018-07-16T01:45:36.666Z,603.4
2018-07-16T01:46:38.836Z,603.5
2018-07-16T01:47:40.719Z,603.5
2018-07-16T01:48:43.175Z,603.3
2018-07-16T01:49:45.063Z,603.3
2018-07-16T01:50:47.229Z,603.3
2018-07-16T01:51:49.673Z,603.4
2018-07-16T01:52:52.126Z,603.2
2018-07-16T01:53:54.569Z,603.1
2018-07-16T01:54:57.013Z,602.8
2018-07-16T01:55:59.468Z,602.9
2018-07-16T01:57:01.677Z,602.9
2018-07-16T01:58:03.847Z,603
2018-07-16T01:59:06.285Z,603.4
2018-07-16T02:00:08.478Z,603.4
2018-07-16T02:01:10.700Z,603.9
2018-07-16T02:02:12.877Z,603.7
2018-07-16T02:03:15.315Z,603.7
2018-07-16T02:04:16.928Z,603.5
2018-07-16T02:05:19.364Z,603.5
2018-07-16T02:06:21.816Z,603.2
2018-07-16T02:07:23.708Z,603.5
2018-07-16T02:08:26.146Z,603.8
2018-07-16T02:09:28.317Z,603.3
2018-07-16T02:10:30.756Z,603.4
2018-07-16T02:11:32.950Z,603.1
2018-07-16T02:12:35.138Z,603
2018-07-16T02:13:37.317Z,603.5
2018-07-16T02:14:39.201Z,603.2
2018-07-16T02:15:40.838Z,603.2
2018-07-16T02:16:43.017Z,603.3
2018-07-16T02:17:45.465Z,603.6
2018-07-16T02:18:47.907Z,603.6
2018-07-16T02:19:50.356Z,603.9
2018-07-16T02:20:51.984Z,604.2
2018-07-16T02:21:54.146Z,604
2018-07-16T02:22:56.594Z,604.4
2018-07-16T02:23:58.771Z,604.4
2018-07-16T02:25:01.229Z,604.2
2018-07-16T02:26:03.394Z,604.2
2018-07-16T02:27:05.577Z,604.1
2018-07-16T02:28:07.202Z,603.8
2018-07-16T02:29:09.646Z,604
2018-07-16T02:30:11.835Z,604.1
2018-07-16T02:31:14.008Z,604.4
2018-07-16T02:32:16.458Z,604.6
2018-07-16T02:33:18.644Z,604.4
2018-07-16T02:34:20.814Z,604.1
2018-07-16T02:35:23.266Z,604.1
2018-07-16T02:36:25.162Z,604
2018-07-16T02:37:27.608Z,603.9
2018-07-16T02:38:29.503Z,604
2018-07-16T02:39:31.960Z,603.9
2018-07-16T02:40:34.401Z,604.1
2018-07-16T02:41:36.577Z,604.2
2018-07-16T02:42:38.758Z,604.2
2018-07-16T02:43:41.213Z,604.4
2018-07-16T02:44:42.816Z,604.7
2018-07-16T02:45:45.020Z,604.3
2018-07-16T02:46:47.218Z,605
2018-07-16T02:47:49.667Z,604.5
2018-07-16T02:48:52.108Z,604.4
2018-07-16T02:49:54.567Z,604.6
2018-07-16T02:50:57.013Z,604.6
2018-07-16T02:51:59.460Z,604.3
2018-07-16T02:53:01.616Z,604.4
2018-07-16T02:54:03.793Z,604.7
2018-07-16T02:55:05.976Z,605
2018-07-16T02:56:08.417Z,605.4
2018-07-16T02:57:10.583Z,605.1
2018-07-16T02:58:13.023Z,605.7
2018-07-16T02:59:15.485Z,605.7
2018-07-16T03:00:17.925Z,605.5
2018-07-16T03:01:20.088Z,605.8
2018-07-16T03:02:22.263Z,605.6
2018-07-16T03:03:24.152Z,605.5
2018-07-16T03:04:26.616Z,605.1
2018-07-16T03:05:28.778Z,605.4
2018-07-16T03:06:31.033Z,604.9
2018-07-16T03:07:33.202Z,605
2018-07-16T03:08:35.698Z,605.1
2018-07-16T03:09:38.145Z,604.8
2018-07-16T03:10:40.028Z,604.6
2018-07-16T03:11:42.497Z,604.6
2018-07-16T03:12:44.963Z,604.6
2018-07-16T03:13:47.406Z,604.7
2018-07-16T03:14:49.576Z,604.7
2018-07-16T03:15:51.444Z,604.8
2018-07-16T03:16:53.602Z,604.8
2018-07-16T03:17:56.108Z,604.8
2018-07-16T03:18:58.282Z,604.6
2018-07-16T03:20:00.474Z,604.5
2018-07-16T03:21:02.646Z,604.6
2018-07-16T03:22:04.577Z,605.1
2018-07-16T03:23:07.028Z,604.7
2018-07-16T03:24:09.477Z,604.9
2018-07-16T03:25:11.637Z,605.1
2018-07-16T03:26:13.268Z,605
2018-07-16T03:27:15.437Z,604.8
2018-07-16T03:28:17.052Z,604.9
2018-07-16T03:29:19.199Z,604.8
2018-07-16T03:30:21.651Z,604.9
2018-07-16T03:31:23.832Z,604.9
2018-07-16T03:32:25.732Z,604.9
2018-07-16T03:33:28.168Z,604.6
2018-07-16T03:34:30.050Z,604.3
2018-07-16T03:35:31.953Z,604.4
2018-07-16T03:36:34.117Z,605
2018-07-16T03:37:36.290Z,604.5
2018-07-16T03:38:38.450Z,604.1
2018-07-16T03:39:40.900Z,604.2
2018-07-16T03:40:43.347Z,604
2018-07-16T03:41:45.535Z,603.7
2018-07-16T03:42:47.992Z,603.5
2018-07-16T03:43:50.164Z,603.5
2018-07-16T03:44:52.612Z,603.4
2018-07-16T03:45:55.057Z,603.1
2018-07-16T03:46:57.230Z,603
2018-07-16T03:47:59.913Z,602.6
2018-07-16T03:49:01.867Z,602.5
2018-07-16T03:50:04.070Z,602.2
2018-07-16T03:51:05.674Z,602.2
2018-07-16T03:52:08.120Z,602.1
2018-07-16T03:53:10.298Z,602.1
2018-07-16T03:54:12.482Z,601.7
2018-07-16T03:55:14.928Z,601.8
2018-07-16T03:56:17.386Z,601.7
2018-07-16T03:57:19.259Z,601.8
2018-07-16T03:58:21.169Z,601.8
2018-07-16T03:59:23.614Z,601.5
2018-07-16T04:00:26.069Z,601.2
2018-07-16T04:01:28.078Z,601.3
2018-07-16T04:02:29.666Z,601.3
2018-07-16T04:03:31.839Z,601.1
2018-07-16T04:04:34.282Z,601.3
2018-07-16T04:05:36.444Z,601
2018-07-16T04:06:38.894Z,601.3
2018-07-16T04:07:41.348Z,600.9
2018-07-16T04:08:43.791Z,601
2018-07-16T04:09:45.715Z,600.9
2018-07-16T04:10:47.896Z,600.5
2018-07-16T04:11:50.053Z,600.1
2018-07-16T04:12:52.241Z,600.2
2018-07-16T04:13:54.406Z,600.1
2018-07-16T04:14:56.577Z,600.3
2018-07-16T04:15:58.747Z,599.8
2018-07-16T04:17:01.208Z,599.9
2018-07-16T04:18:03.656Z,600
2018-07-16T04:19:06.119Z,600.1
2018-07-16T04:20:08.286Z,599.8
2018-07-16T04:21:10.471Z,600
2018-07-16T04:22:12.654Z,600
2018-07-16T04:23:14.557Z,600.3
2018-07-16T04:24:17.002Z,600.3
2018-07-16T04:25:19.449Z,600.3
2018-07-16T04:26:21.351Z,600.4
2018-07-16T04:27:23.526Z,600.4
2018-07-16T04:28:25.976Z,600.3
2018-07-16T04:29:28.414Z,599.9
2018-07-16T04:30:30.561Z,600.2
2018-07-16T04:31:32.743Z,599.7
2018-07-16T04:32:34.918Z,599.8
2018-07-16T04:33:37.377Z,599.4
2018-07-16T04:34:39.831Z,598.9
2018-07-16T04:35:41.995Z,598.9
2018-07-16T04:36:44.166Z,599
2018-07-16T04:37:46.332Z,598.9
2018-07-16T04:38:48.772Z,598.9
2018-07-16T04:39:51.398Z,598.8
2018-07-16T04:40:53.288Z,599.3
2018-07-16T04:41:55.735Z,599.3
2018-07-16T04:42:58.183Z,599.4
2018-07-16T04:44:00.621Z,599.6
2018-07-16T04:45:03.057Z,599.1
2018-07-16T04:46:05.513Z,599.6
2018-07-16T04:47:07.957Z,599.2
2018-07-16T04:48:10.403Z,599
2018-07-16T04:49:12.313Z,598.7
2018-07-16T04:50:14.236Z,598.5
2018-07-16T04:51:16.419Z,598.7
2018-07-16T04:52:18.606Z,599.3
2018-07-16T04:53:21.067Z,599.6
2018-07-16T04:54:22.685Z,600.1
2018-07-16T04:55:24.849Z,599.9
2018-07-16T04:56:26.756Z,599.6
2018-07-16T04:57:28.941Z,600.2
2018-07-16T04:58:31.385Z,600
2018-07-16T04:59:33.567Z,600
2018-07-16T05:00:35.747Z,600.5
2018-07-16T05:01:37.628Z,600.7
2018-07-16T05:02:39.804Z,600.8
2018-07-16T05:03:42.252Z,600.7
2018-07-16T05:04:44.696Z,600.9
2018-07-16T05:05:47.150Z,600.7
2018-07-16T05:06:49.329Z,600.3
2018-07-16T05:07:51.783Z,600.4
2018-07-16T05:08:54.228Z,600.5
2018-07-16T05:09:56.103Z,600.6
2018-07-16T05:10:58.298Z,600.9
2018-07-16T05:12:00.477Z,601
2018-07-16T05:13:02.921Z,600.5
2018-07-16T05:14:05.367Z,600.4
2018-07-16T05:15:07.834Z,599.8
2018-07-16T05:16:10.276Z,599.6
2018-07-16T05:17:12.449Z,599.1
2018-07-16T05:18:15.316Z,599.3
2018-07-16T05:19:17.567Z,598.8
2018-07-16T05:20:19.732Z,598.7
2018-07-16T05:21:21.913Z,598.5
2018-07-16T05:22:24.073Z,598.4
2018-07-16T05:23:26.219Z,598.4
2018-07-16T05:24:28.676Z,598.8
2018-07-16T05:25:31.125Z,598.6
2018-07-16T05:26:33.587Z,598.6
2018-07-16T05:27:36.031Z,598.1
2018-07-16T05:28:38.212Z,598.5
2018-07-16T05:29:39.817Z,598.2
2018-07-16T05:30:42.257Z,597.8
2018-07-16T05:31:45.020Z,597.9
2018-07-16T05:32:48.718Z,597.7
2018-07-16T05:33:51.218Z,598
2018-07-16T05:34:53.392Z,598.1
2018-07-16T05:35:55.578Z,598.2
2018-07-16T05:36:58.026Z,598.5
2018-07-16T05:37:59.898Z,598.2
2018-07-16T05:39:01.811Z,598.3
2018-07-16T05:40:03.706Z,598.7
2018-07-16T05:41:05.875Z,598.8
2018-07-16T05:42:08.329Z,598.7
2018-07-16T05:43:10.479Z,598.8
2018-07-16T05:44:12.664Z,598.9
2018-07-16T05:45:14.826Z,599
2018-07-16T05:46:17.011Z,599.1
2018-07-16T05:47:19.466Z,599
2018-07-16T05:48:21.116Z,599.2
2018-07-16T05:49:22.986Z,599.4
2018-07-16T05:50:25.462Z,599
2018-07-16T05:51:27.907Z,599.5
2018-07-16T05:52:30.072Z,599.3
2018-07-16T05:53:32.526Z,599.8
2018-07-16T05:54:34.728Z,600
2018-07-16T05:55:36.928Z,599.7
2018-07-16T05:56:39.386Z,599.8
2018-07-16T05:57:41.837Z,599.5
2018-07-16T05:58:44.294Z,599.6
2018-07-16T05:59:46.746Z,599.4
2018-07-16T06:00:49.192Z,599.7
2018-07-16T06:01:51.358Z,599.8
2018-07-16T06:02:53.560Z,599.7
2018-07-16T06:03:55.729Z,600.1
2018-07-16T06:04:57.876Z,599.8
2018-07-16T06:06:00.035Z,600
2018-07-16T06:07:02.205Z,599.5
2018-07-16T06:08:04.687Z,599.5
2018-07-16T06:09:06.926Z,598.6
2018-07-16T06:10:09.381Z,598.3
2018-07-16T06:11:11.580Z,597.8
2018-07-16T06:12:13.470Z,597.4
2018-07-16T06:13:15.931Z,597.4
2018-07-16T06:14:18.376Z,597.1
2018-07-16T06:15:20.851Z,597.2
2018-07-16T06:16:23.306Z,597.2
2018-07-16T06:17:25.493Z,597.3
2018-07-16T06:18:27.700Z,597.1
2018-07-16T06:19:30.147Z,597.4
2018-07-16T06:20:32.317Z,597.6
2018-07-16T06:21:34.780Z,597.3
2018-07-16T06:22:36.954Z,597.5
2018-07-16T06:23:39.403Z,597.2
2018-07-16T06:24:41.022Z,597.4
2018-07-16T06:25:43.489Z,597.8
2018-07-16T06:26:45.945Z,597.4
2018-07-16T06:27:48.126Z,598.1
2018-07-16T06:28:50.002Z,597.8
2018-07-16T06:29:52.153Z,597.6
2018-07-16T06:30:54.601Z,598.3
2018-07-16T06:31:57.061Z,598.3
2018-07-16T06:32:59.539Z,597.6
2018-07-16T06:34:01.715Z,597.6
2018-07-16T06:35:03.887Z,598
2018-07-16T06:36:05.756Z,597.8
2018-07-16T06:37:08.212Z,598.1
2018-07-16T06:38:10.116Z,598.5
2018-07-16T06:39:12.577Z,598.3
2018-07-16T06:40:15.497Z,598.6
2018-07-16T06:41:19.980Z,598.6
2018-07-16T06:42:22.136Z,598.8
2018-07-16T06:43:24.593Z,599.3
2018-07-16T06:44:27.038Z,599.1
2018-07-16T06:45:29.211Z,599.1
2018-07-16T06:46:31.351Z,599.4
2018-07-16T06:47:33.282Z,599.5
2018-07-16T06:48:35.428Z,599.7
2018-07-16T06:49:37.339Z,599.7
2018-07-16T06:50:39.514Z,600
2018-07-16T06:51:41.689Z,599.6
2018-07-16T06:52:43.873Z,599.6
2018-07-16T06:53:46.037Z,599.7
2018-07-16T06:54:48.184Z,599
2018-07-16T06:55:50.389Z,599.5
2018-07-16T06:56:52.569Z,599.5
2018-07-16T06:57:54.757Z,599.7
2018-07-16T06:58:57.212Z,599.6
2018-07-16T06:59:59.381Z,599.7
2018-07-16T07:01:01.572Z,599.7
2018-07-16T07:02:04.033Z,599.8
2018-07-16T07:03:06.489Z,599.7
2018-07-16T07:04:08.667Z,600.1
2018-07-16T07:05:11.114Z,599.7
2018-07-16T07:06:13.562Z,599.9
2018-07-16T07:07:16.016Z,599.7
2018-07-16T07:08:18.461Z,599.7
2018-07-16T07:09:20.917Z,599.6
2018-07-16T07:10:23.367Z,599.9
2018-07-16T07:11:25.254Z,600.1
2018-07-16T07:12:27.703Z,600
2018-07-16T07:13:30.149Z,599.8
2018-07-16T07:14:32.024Z,599.5
2018-07-16T07:15:34.194Z,599.7
2018-07-16T07:16:36.366Z,599.6
2018-07-16T07:17:38.548Z,600
2018-07-16T07:18:40.737Z,600.1
2018-07-16T07:19:42.912Z,600.3
2018-07-16T07:20:45.369Z,600.3
2018-07-16T07:21:47.809Z,600.5
2018-07-16T07:22:50.270Z,600.5
2018-07-16T07:23:52.722Z,600.4
2018-07-16T07:24:55.167Z,600.8
2018-07-16T07:25:57.068Z,600.5
2018-07-16T07:26:59.521Z,600.6
2018-07-16T07:28:01.397Z,600.3
2018-07-16T07:29:03.293Z,600.4
2018-07-16T07:30:05.750Z,600.5
2018-07-16T07:31:07.654Z,600.2
2018-07-16T07:32:10.098Z,600.5
2018-07-16T07:33:12.238Z,600.9
2018-07-16T07:34:14.690Z,601.2
2018-07-16T07:35:17.410Z,600.7
2018-07-16T07:36:19.430Z,600.9
2018-07-16T07:37:21.326Z,601
2018-07-16T07:38:23.517Z,601.2
2018-07-16T07:39:25.688Z,601.1
2018-07-16T07:40:27.837Z,600.7
2018-07-16T07:41:30.019Z,600.9
2018-07-16T07:42:32.201Z,601.1
2018-07-16T07:43:34.657Z,601
2018-07-16T07:44:37.098Z,601.5
2018-07-16T07:45:39.268Z,601.4
2018-07-16T07:46:41.447Z,601.3
2018-07-16T07:47:43.888Z,601.3
2018-07-16T07:48:45.906Z,601.7
2018-07-16T07:49:48.091Z,601.3
2018-07-16T07:50:50.555Z,601.7
2018-07-16T07:51:52.472Z,601.7
2018-07-16T07:52:54.651Z,601.7
2018-07-16T07:53:56.839Z,602
2018-07-16T07:55:00.841Z,601.7
2018-07-16T07:56:02.468Z,601.9
2018-07-16T07:57:04.923Z,602.2
2018-07-16T07:58:07.100Z,602.1
2018-07-16T07:59:09.544Z,602.3
2018-07-16T08:00:11.438Z,602.8
2018-07-16T08:01:13.639Z,602.3
2018-07-16T08:02:16.097Z,602.7
2018-07-16T08:03:18.790Z,602.7
2018-07-16T08:04:20.697Z,602.7
2018-07-16T08:05:22.852Z,602.5
2018-07-16T08:06:25.313Z,602.2
2018-07-16T08:07:27.753Z,602
2018-07-16T08:08:30.205Z,602.1
2018-07-16T08:09:32.671Z,602.2
2018-07-16T08:10:34.730Z,602.5
2018-07-16T08:11:38.478Z,602.5
2018-07-16T08:12:41.167Z,602.9
2018-07-16T08:13:42.894Z,602.2
2018-07-16T08:14:44.765Z,602.8
2018-07-16T08:15:47.227Z,602.7
2018-07-16T08:16:49.433Z,602.9
2018-07-16T08:17:50.814Z,602.7
2018-07-16T08:18:53.298Z,603
2018-07-16T08:19:55.747Z,603.1
2018-07-16T08:20:58.597Z,602.6
2018-07-16T08:22:02.581Z,603
2018-07-16T08:23:05.952Z,602.5
2018-07-16T08:24:08.421Z,602.1
2018-07-16T08:25:10.895Z,602.2
2018-07-16T08:26:12.822Z,602.2
2018-07-16T08:27:15.027Z,602.3
2018-07-16T08:28:17.941Z,602.1
2018-07-16T08:29:20.482Z,602.3
2018-07-16T08:30:22.952Z,602.1
2018-07-16T08:31:24.854Z,602.3
2018-07-16T08:32:27.303Z,602.3
2018-07-16T08:33:31.007Z,602.2
2018-07-16T08:34:35.843Z,602.6
2018-07-16T08:35:38.597Z,602.3
2018-07-16T08:36:40.544Z,602.4
2018-07-16T08:37:42.762Z,602.3
2018-07-16T08:38:44.973Z,603
2018-07-16T08:39:47.448Z,603.2
2018-07-16T08:40:49.618Z,603
2018-07-16T08:41:51.808Z,603.5
2018-07-16T08:42:54.275Z,603.7
2018-07-16T08:43:56.738Z,603.5
2018-07-16T08:44:59.765Z,604
2018-07-16T08:46:01.920Z,604.1
2018-07-16T08:47:04.368Z,604.2
2018-07-16T08:48:06.549Z,604.1
2018-07-16T08:49:08.700Z,604.2
2018-07-16T08:50:10.868Z,604.4
2018-07-16T08:51:13.310Z,604.4
2018-07-16T08:52:15.759Z,604.4
2018-07-16T08:53:17.939Z,604.5
2018-07-16T08:54:20.134Z,604.5
2018-07-16T08:55:22.308Z,604.4
2018-07-16T08:56:24.763Z,604.5
2018-07-16T08:57:26.677Z,604.3
2018-07-16T08:58:28.854Z,604.1
2018-07-16T08:59:31.036Z,604.6
2018-07-16T09:00:33.225Z,604.7
2018-07-16T09:01:35.377Z,604.7
2018-07-16T09:02:37.558Z,605
2018-07-16T09:03:39.737Z,605.2
2018-07-16T09:04:41.626Z,605.3
2018-07-16T09:05:43.821Z,605.2
2018-07-16T09:06:45.978Z,605.2
2018-07-16T09:07:47.850Z,605.6
2018-07-16T09:08:50.300Z,605.7
2018-07-16T09:09:52.529Z,605.8
2018-07-16T09:10:55.269Z,606
2018-07-16T09:11:57.538Z,606
2018-07-16T09:12:59.424Z,606.1
2018-07-16T09:14:01.318Z,606.1
2018-07-16T09:15:03.520Z,605.9
2018-07-16T09:16:05.417Z,605.8
2018-07-16T09:17:07.589Z,605.5
2018-07-16T09:18:09.782Z,605.5
2018-07-16T09:19:12.222Z,605.7
2018-07-16T09:20:14.403Z,605.7
2018-07-16T09:21:16.594Z,605.7
2018-07-16T09:22:19.061Z,606.3
2018-07-16T09:23:21.531Z,605.8
2018-07-16T09:24:23.703Z,605.9
2018-07-16T09:25:26.077Z,606.2
2018-07-16T09:26:28.606Z,606.4
2018-07-16T09:27:30.781Z,606.7
2018-07-16T09:28:33.227Z,606.6
2018-07-16T09:29:35.410Z,606.7
2018-07-16T09:30:37.051Z,606.8
2018-07-16T09:31:39.507Z,607.1
2018-07-16T09:32:42.227Z,606.9
2018-07-16T09:33:44.423Z,606.8
2018-07-16T09:34:46.618Z,606.6
2018-07-16T09:35:49.059Z,606.9
2018-07-16T09:36:51.511Z,607.2
2018-07-16T09:37:54.005Z,607.4
2018-07-16T09:38:56.798Z,607
2018-07-16T09:39:58.883Z,607
2018-07-16T09:41:01.338Z,607
2018-07-16T09:42:03.789Z,606.8
2018-07-16T09:43:05.953Z,606.8
2018-07-16T09:44:08.145Z,607
2018-07-16T09:45:10.293Z,607.1
2018-07-16T09:46:12.460Z,607.3
2018-07-16T09:47:14.620Z,607.6
2018-07-16T09:48:17.065Z,607.6
2018-07-16T09:49:19.521Z,607.6
2018-07-16T09:50:21.976Z,607.5
2018-07-16T09:51:23.613Z,607.5
2018-07-16T09:52:25.503Z,607.7
2018-07-16T09:53:27.708Z,607.7
2018-07-16T09:54:29.878Z,607.8
2018-07-16T09:55:32.337Z,607.8
2018-07-16T09:56:34.647Z,607.7
2018-07-16T09:57:36.798Z,607.3
2018-07-16T09:58:38.947Z,607.7
2018-07-16T09:59:41.130Z,607.3
2018-07-16T10:00:43.028Z,608
2018-07-16T10:01:45.209Z,607.9
2018-07-16T10:02:46.829Z,607.1
2018-07-16T10:03:48.981Z,607.3
2018-07-16T10:04:51.159Z,607.5
2018-07-16T10:05:53.334Z,607.6
2018-07-16T10:06:55.535Z,608
2018-07-16T10:07:58.044Z,607.4
2018-07-16T10:09:00.492Z,607.7
2018-07-16T10:10:02.673Z,607.6
2018-07-16T10:11:04.917Z,607.2
2018-07-16T10:12:07.161Z,607.6
2018-07-16T10:13:09.626Z,607.2
2018-07-16T10:14:12.075Z,607.2
2018-07-16T10:15:14.518Z,607.4
2018-07-16T10:16:16.133Z,607.2
2018-07-16T10:17:18.331Z,607.5
2018-07-16T10:18:20.250Z,607.3
2018-07-16T10:19:22.698Z,607.4
2018-07-16T10:20:24.888Z,607.6
2018-07-16T10:21:27.325Z,608
2018-07-16T10:22:29.781Z,607.9
2018-07-16T10:23:32.232Z,607.9
2018-07-16T10:24:34.677Z,608.5
2018-07-16T10:25:36.865Z,608.2
2018-07-16T10:26:39.315Z,608.6
2018-07-16T10:27:41.758Z,608.6
2018-07-16T10:28:43.948Z,608.7
2018-07-16T10:29:45.577Z,608.9
2018-07-16T10:30:47.749Z,609.2
2018-07-16T10:31:49.935Z,609.4
2018-07-16T10:32:52.157Z,609
2018-07-16T10:33:54.475Z,609.3
2018-07-16T10:34:56.393Z,609.4
2018-07-16T10:35:58.274Z,609.5
2018-07-16T10:37:00.448Z,609.5
2018-07-16T10:38:02.608Z,609.5
2018-07-16T10:39:04.524Z,609.6
2018-07-16T10:40:06.989Z,609.7
2018-07-16T10:41:09.137Z,609.7
2018-07-16T10:42:11.631Z,609.9
2018-07-16T10:43:14.082Z,609.8
2018-07-16T10:44:15.962Z,610
2018-07-16T10:45:18.424Z,610
2018-07-16T10:46:20.621Z,610.2
2018-07-16T10:47:23.067Z,609.7
2018-07-16T10:48:25.226Z,610.1
2018-07-16T10:49:27.392Z,610
2018-07-16T10:50:29.844Z,610.1
2018-07-16T10:51:31.739Z,609.9
2018-07-16T10:52:34.196Z,610.3
2018-07-16T10:53:36.378Z,610.4
2018-07-16T10:54:38.846Z,610.7
2018-07-16T10:55:41.038Z,610.5
2018-07-16T10:56:43.497Z,610.8
2018-07-16T10:57:45.657Z,610.7
2018-07-16T10:58:48.101Z,610.6
2018-07-16T10:59:50.545Z,611.2
2018-07-16T11:00:53.005Z,611.3
2018-07-16T11:01:55.555Z,611.9
2018-07-16T11:02:58.003Z,611.1
2018-07-16T11:04:00.440Z,611.6
2018-07-16T11:05:02.618Z,611.7
2018-07-16T11:06:04.799Z,612.1
2018-07-16T11:07:06.974Z,612.3
2018-07-16T11:08:09.155Z,612.5
2018-07-16T11:09:11.336Z,612.4
2018-07-16T11:10:13.518Z,612.3
2018-07-16T11:11:15.760Z,612.5
2018-07-16T11:12:18.219Z,612.5
2018-07-16T11:13:20.397Z,612.4
2018-07-16T11:14:22.541Z,612.3
2018-07-16T11:15:24.739Z,612.6
2018-07-16T11:16:27.186Z,612.1
2018-07-16T11:17:29.648Z,612.4
2018-07-16T11:18:32.092Z,612.7
2018-07-16T11:19:33.983Z,612.5
2018-07-16T11:20:35.896Z,612.9
2018-07-16T11:21:37.804Z,612.8
2018-07-16T11:22:39.698Z,612.9
2018-07-16T11:23:41.866Z,613.2
2018-07-16T11:24:44.032Z,613.6
2018-07-16T11:25:45.928Z,613.3
2018-07-16T11:26:48.112Z,613.6
2018-07-16T11:27:50.280Z,613.6
2018-07-16T11:28:52.722Z,613.8
2018-07-16T11:29:54.642Z,613.5
2018-07-16T11:30:56.802Z,613.8
2018-07-16T11:31:59.008Z,614.2
2018-07-16T11:33:01.203Z,614.2
2018-07-16T11:34:03.090Z,614
2018-07-16T11:35:05.555Z,614.5
2018-07-16T11:36:08.002Z,614.3
2018-07-16T11:37:09.914Z,614.7
2018-07-16T11:38:12.086Z,614.5
2018-07-16T11:39:13.965Z,615.1
2018-07-16T11:40:16.137Z,614.8
2018-07-16T11:41:18.588Z,614.8
2018-07-16T11:42:21.043Z,614.7
2018-07-16T11:43:22.960Z,614.7
2018-07-16T11:44:25.416Z,614.6
2018-07-16T11:45:27.292Z,615.2
2018-07-16T11:46:29.172Z,615.1
2018-07-16T11:47:31.062Z,614.9
2018-07-16T11:48:33.298Z,615.2
2018-07-16T11:49:35.478Z,616
2018-07-16T11:50:37.658Z,615.9
2018-07-16T11:51:39.832Z,615.7
2018-07-16T11:52:42.018Z,616
2018-07-16T11:53:44.482Z,616
2018-07-16T11:54:46.657Z,615.8
2018-07-16T11:55:48.832Z,616
2018-07-16T11:56:50.996Z,616.6
2018-07-16T11:57:53.172Z,616.6
2018-07-16T11:58:55.883Z,616.8
2018-07-16T11:59:58.068Z,616.5
2018-07-16T12:01:00.521Z,616.7
2018-07-16T12:02:02.712Z,616.7
2018-07-16T12:03:05.175Z,617.4
2018-07-16T12:04:07.617Z,617.6
2018-07-16T12:05:10.273Z,617.5
2018-07-16T12:06:12.522Z,617.8
2018-07-16T12:07:14.702Z,617.7
2018-07-16T12:08:17.166Z,617.6
2018-07-16T12:09:19.597Z,617.5
2018-07-16T12:10:21.789Z,617.4
2018-07-16T12:11:24.260Z,617.7
2018-07-16T12:12:26.505Z,617.8
2018-07-16T12:13:28.713Z,617.4
2018-07-16T12:14:31.171Z,617.5
2018-07-16T12:15:32.784Z,617.4
2018-07-16T12:16:34.939Z,617.6
2018-07-16T12:17:37.403Z,617.4
2018-07-16T12:18:39.577Z,618.2
2018-07-16T12:19:41.784Z,618.3
2018-07-16T12:20:43.941Z,618.2
2018-07-16T12:21:46.381Z,618.5
2018-07-16T12:22:48.276Z,619
2018-07-16T12:23:50.209Z,619.2
2018-07-16T12:24:52.373Z,619
2018-07-16T12:25:55.274Z,619.9
2018-07-16T12:26:57.568Z,620
2018-07-16T12:27:59.734Z,619.9
2018-07-16T12:29:01.887Z,619.6
2018-07-16T12:30:04.067Z,620
2018-07-16T12:31:06.512Z,619.6
2018-07-16T12:32:08.681Z,619.8
2018-07-16T12:33:11.126Z,619.8
2018-07-16T12:34:13.299Z,619.9
2018-07-16T12:35:15.742Z,620.3
2018-07-16T12:36:18.188Z,620.4
2018-07-16T12:37:20.363Z,620.4
2018-07-16T12:38:22.254Z,620.4
2018-07-16T12:39:24.141Z,620.5
2018-07-16T12:40:26.309Z,620.2
2018-07-16T12:41:28.507Z,620.9
2018-07-16T12:42:30.631Z,620.7
2018-07-16T12:43:33.094Z,620.9
2018-07-16T12:44:35.547Z,620.6
2018-07-16T12:45:38.017Z,621.1
2018-07-16T12:46:40.471Z,621.1
2018-07-16T12:47:42.662Z,620.9
2018-07-16T12:48:45.106Z,621.3
2018-07-16T12:49:47.280Z,621.7
2018-07-16T12:50:49.467Z,621.6
2018-07-16T12:51:51.651Z,622.3
2018-07-16T12:52:54.104Z,622.6
2018-07-16T12:53:56.560Z,622.7
2018-07-16T12:54:59.009Z,623.3
2018-07-16T12:56:00.905Z,623.3
2018-07-16T12:57:03.176Z,623.4
2018-07-16T12:58:05.317Z,623.5
2018-07-16T12:59:07.782Z,624.1
2018-07-16T13:00:09.401Z,624.3
2018-07-16T13:01:11.871Z,624.7
2018-07-16T13:02:14.341Z,624.7
2018-07-16T13:03:16.499Z,624.4
2018-07-16T13:04:18.700Z,624.8
2018-07-16T13:05:20.589Z,624.9
2018-07-16T13:06:23.055Z,625.3
2018-07-16T13:07:24.949Z,625.1
2018-07-16T13:08:27.391Z,625.6
2018-07-16T13:09:29.832Z,625.9
2018-07-16T13:10:32.026Z,626
2018-07-16T13:11:34.458Z,626
2018-07-16T13:12:36.906Z,625.9
2018-07-16T13:13:39.078Z,626.6
2018-07-16T13:14:40.983Z,626.4
2018-07-16T13:15:42.632Z,626.2
2018-07-16T13:16:45.078Z,626.5
2018-07-16T13:17:47.525Z,626.5
2018-07-16T13:18:49.726Z,626.7
2018-07-16T13:19:52.182Z,626.6
2018-07-16T13:20:54.361Z,626.5
2018-07-16T13:21:57.109Z,626.6
2018-07-16T13:22:58.927Z,626.9
2018-07-16T13:24:01.089Z,626.5
2018-07-16T13:25:02.977Z,626.5
2018-07-16T13:26:05.421Z,626.5
2018-07-16T13:27:07.618Z,626.5